Time;durP1;ratioP1;P1;durP2;ratioP2;P2;SDS_P1;SDS_P2;PMS_P1;PMS_P2;Temp;Humidity;BMP_temperature;BMP_pressure;BME280_temperature;BME280_humidity;BME280_pressure;Samples;Min_cycle;Max_cycle;Signal;HPM_P1;HPM_P2
2021/06/17 00:00:42;;;;;;;10.75;6.72;;;22.20;99.90;;;;;;3492637;40;20116;-82
2021/06/17 00:03:13;;;;;;;11.02;7.03;;;22.10;99.90;;;;;;3493866;41;20092;-81
2021/06/17 00:05:44;;;;;;;11.07;7.80;;;22.10;99.90;;;;;;3494841;40;20087;-82
2021/06/17 00:08:14;;;;;;;9.15;7.07;;;22.10;99.90;;;;;;3520123;40;20064;-81
2021/06/17 00:10:43;;;;;;;8.32;6.93;;;22.00;99.90;;;;;;3517601;40;20087;-81
2021/06/17 00:13:16;;;;;;;10.02;7.20;;;22.00;99.90;;;;;;3515173;40;20068;-82
2021/06/17 00:15:46;;;;;;;8.95;6.25;;;21.90;99.90;;;;;;3512581;40;20092;-82
2021/06/17 00:18:16;;;;;;;9.68;6.97;;;21.90;99.90;;;;;;3512329;40;20322;-82
2021/06/17 00:20:48;;;;;;;9.82;6.82;;;21.80;99.90;;;;;;3513029;40;20080;-82
2021/06/17 00:23:16;;;;;;;9.30;6.78;;;21.80;99.90;;;;;;3513344;40;20430;-81
2021/06/17 00:25:44;;;;;;;8.73;7.13;;;21.80;99.90;;;;;;3502789;40;20076;-81
2021/06/17 00:28:14;;;;;;;11.27;6.97;;;21.80;99.90;;;;;;3508313;40;20185;-82
2021/06/17 00:30:44;;;;;;;10.93;6.55;;;21.70;99.90;;;;;;3513587;40;20063;-82
2021/06/17 00:33:16;;;;;;;11.88;6.70;;;21.70;99.90;;;;;;3522894;40;20068;-86
2021/06/17 00:35:44;;;;;;;10.63;7.32;;;21.70;99.90;;;;;;3521059;40;20095;-83
2021/06/17 00:38:12;;;;;;;9.57;6.93;;;21.70;99.90;;;;;;3522035;40;20151;-82
2021/06/17 00:40:42;;;;;;;9.02;6.65;;;21.60;99.90;;;;;;3518506;40;20071;-83
2021/06/17 00:43:11;;;;;;;10.63;6.68;;;21.60;99.90;;;;;;3514731;41;20084;-82
2021/06/17 00:45:44;;;;;;;11.85;7.18;;;21.60;99.90;;;;;;3520317;40;20067;-81
2021/06/17 00:48:17;;;;;;;8.15;6.55;;;21.60;99.90;;;;;;3511679;40;20344;-84
2021/06/17 00:50:51;;;;;;;10.55;6.88;;;21.50;99.90;;;;;;3522744;40;20071;-83
2021/06/17 00:53:24;;;;;;;9.43;6.53;;;21.60;99.90;;;;;;3514131;40;20418;-82
2021/06/17 00:55:52;;;;;;;9.93;6.95;;;21.50;99.90;;;;;;3504327;40;20091;-82
2021/06/17 00:58:22;;;;;;;11.65;6.78;;;21.50;99.90;;;;;;3505509;40;20121;-81
2021/06/17 01:00:50;;;;;;;9.60;6.85;;;21.50;99.90;;;;;;3522250;40;20079;-83
2021/06/17 01:03:20;;;;;;;10.80;6.88;;;21.50;99.90;;;;;;3524630;40;20088;-82
2021/06/17 01:05:49;;;;;;;8.88;7.10;;;21.50;99.90;;;;;;3511876;40;20422;-82
2021/06/17 01:08:28;;;;;;;11.48;7.13;;;21.50;99.90;;;;;;3522443;40;20090;-82
2021/06/17 01:11:06;;;;;;;11.70;6.85;;;21.40;99.90;;;;;;3511498;40;20071;-82
2021/06/17 01:13:43;;;;;;;11.07;7.77;;;21.40;99.90;;;;;;3510966;40;20094;-80
2021/06/17 01:16:23;;;;;;;11.13;6.88;;;21.30;99.90;;;;;;3510459;40;20583;-84
2021/06/17 01:18:55;;;;;;;10.75;7.28;;;21.20;99.90;;;;;;3514882;40;20052;-82
2021/06/17 01:21:33;;;;;;;8.30;6.40;;;21.20;99.90;;;;;;3505420;40;20314;-82
2021/06/17 01:24:18;;;;;;;8.93;6.63;;;21.20;99.90;;;;;;3522415;40;20083;-81
2021/06/17 01:27:11;;;;;;;10.10;6.30;;;21.20;99.90;;;;;;3514494;40;20072;-82
2021/06/17 01:29:45;;;;;;;9.82;6.53;;;21.10;99.90;;;;;;3506546;40;20095;-82
2021/06/17 01:32:15;;;;;;;9.77;6.50;;;21.10;99.90;;;;;;3522880;40;20068;-82
2021/06/17 01:34:46;;;;;;;10.50;6.40;;;21.10;99.90;;;;;;3511456;40;20072;-82
2021/06/17 01:37:17;;;;;;;12.07;6.10;;;21.10;99.90;;;;;;3491565;41;20323;-82
2021/06/17 01:39:46;;;;;;;11.15;6.13;;;21.00;99.90;;;;;;3488894;41;20088;-81
2021/06/17 01:42:16;;;;;;;9.02;6.25;;;21.00;99.90;;;;;;3492440;41;20110;-82
2021/06/17 01:44:48;;;;;;;11.95;6.38;;;21.00;99.90;;;;;;3489424;41;20077;-82
2021/06/17 01:47:16;;;;;;;8.10;6.32;;;20.90;99.90;;;;;;3494324;41;20205;-82
2021/06/17 01:49:46;;;;;;;10.32;6.57;;;20.90;99.90;;;;;;3487184;41;20108;-82
2021/06/17 01:52:14;;;;;;;11.18;6.45;;;20.90;99.90;;;;;;3487812;41;20069;-82
2021/06/17 01:54:43;;;;;;;10.25;6.05;;;20.80;99.90;;;;;;3489721;41;20080;-82
2021/06/17 01:57:15;;;;;;;10.88;6.72;;;20.80;99.90;;;;;;3488962;41;20367;-83
2021/06/17 01:59:50;;;;;;;11.43;6.15;;;20.80;99.90;;;;;;3495316;41;20096;-85
2021/06/17 02:02:19;;;;;;;8.63;6.60;;;20.80;99.90;;;;;;3482608;41;20089;-82
2021/06/17 02:04:52;;;;;;;9.30;6.38;;;20.80;99.90;;;;;;3493076;41;20069;-82
2021/06/17 02:07:24;;;;;;;12.00;6.90;;;20.70;99.90;;;;;;3475519;41;20096;-82
2021/06/17 02:09:54;;;;;;;10.57;6.75;;;20.70;99.90;;;;;;3493624;41;20092;-85
2021/06/17 02:12:26;;;;;;;11.15;6.35;;;20.70;99.90;;;;;;3487628;41;20116;-83
2021/06/17 02:14:59;;;;;;;12.90;6.97;;;20.70;99.90;;;;;;3514162;40;20091;-82
2021/06/17 02:17:28;;;;;;;16.65;6.80;;;20.70;99.90;;;;;;3525534;40;20140;-82
2021/06/17 02:19:56;;;;;;;9.55;6.80;;;20.60;99.90;;;;;;3517715;40;20076;-84
2021/06/17 02:22:26;;;;;;;9.87;6.20;;;20.60;99.90;;;;;;3502480;40;20071;-82
2021/06/17 02:24:57;;;;;;;12.10;6.18;;;20.70;99.90;;;;;;3518213;40;20326;-82
2021/06/17 02:27:29;;;;;;;14.20;6.85;;;20.60;99.90;;;;;;3516675;40;20068;-81
2021/06/17 02:30:01;;;;;;;11.82;7.03;;;20.50;99.90;;;;;;3517236;40;20079;-82
2021/06/17 02:32:31;;;;;;;10.23;6.55;;;20.50;99.90;;;;;;3509080;40;20079;-82
2021/06/17 02:34:59;;;;;;;10.77;6.32;;;20.50;99.90;;;;;;3519813;40;20075;-81
2021/06/17 02:37:30;;;;;;;11.55;6.15;;;20.50;99.90;;;;;;3518418;40;20083;-81
2021/06/17 02:39:58;;;;;;;11.07;8.10;;;20.50;99.90;;;;;;3509766;40;20153;-82
2021/06/17 02:42:27;;;;;;;14.88;8.80;;;20.40;99.90;;;;;;3518951;40;20132;-82
2021/06/17 02:44:56;;;;;;;13.43;8.00;;;20.40;99.90;;;;;;3516140;40;20060;-81
2021/06/17 02:47:27;;;;;;;10.25;6.95;;;20.40;99.90;;;;;;3519576;40;20043;-82
2021/06/17 02:49:59;;;;;;;12.60;6.60;;;20.40;99.90;;;;;;3511425;40;20087;-81
2021/06/17 02:52:29;;;;;;;9.73;6.32;;;20.40;99.90;;;;;;3513282;40;20430;-84
2021/06/17 02:54:58;;;;;;;11.48;6.72;;;20.40;99.90;;;;;;3518658;40;20063;-82
2021/06/17 02:57:41;;;;;;;9.20;5.95;;;20.30;99.90;;;;;;3514468;40;20083;-81
2021/06/17 03:00:15;;;;;;;10.68;6.18;;;20.30;99.90;;;;;;3519241;40;20307;-83
2021/06/17 03:02:53;;;;;;;10.30;6.20;;;20.30;99.90;;;;;;3513043;40;20411;-81
2021/06/17 03:05:24;;;;;;;8.32;5.63;;;20.30;99.90;;;;;;3511409;40;20092;-88
2021/06/17 03:07:58;;;;;;;9.48;6.70;;;20.30;99.90;;;;;;3508183;40;20059;-82
2021/06/17 03:10:27;;;;;;;12.90;5.88;;;20.30;99.90;;;;;;3520992;40;20119;-82
2021/06/17 03:13:00;;;;;;;11.20;6.28;;;20.30;99.90;;;;;;3520933;40;20478;-82
2021/06/17 03:15:32;;;;;;;9.48;6.18;;;20.30;99.90;;;;;;3513489;40;20387;-83
2021/06/17 03:18:06;;;;;;;9.32;6.05;;;20.30;99.90;;;;;;3510619;40;20103;-83
2021/06/17 03:20:39;;;;;;;8.50;5.88;;;20.30;99.90;;;;;;3512742;40;20096;-85
2021/06/17 03:23:14;;;;;;;11.02;6.95;;;20.30;99.90;;;;;;3512664;40;20471;-83
2021/06/17 03:25:44;;;;;;;15.68;9.05;;;20.30;99.90;;;;;;3512369;40;20100;-84
2021/06/17 03:28:14;;;;;;;9.85;6.18;;;20.40;99.90;;;;;;3513019;40;20071;-84
2021/06/17 03:30:46;;;;;;;13.02;6.10;;;20.40;99.90;;;;;;3496118;40;20092;-81
2021/06/17 03:33:23;;;;;;;9.13;6.07;;;20.40;99.90;;;;;;3513142;40;20071;-81
2021/06/17 03:35:52;;;;;;;10.48;5.65;;;20.40;99.90;;;;;;3511962;40;20099;-81
2021/06/17 03:38:22;;;;;;;10.95;5.72;;;20.40;99.90;;;;;;3519082;40;20094;-81
2021/06/17 03:40:56;;;;;;;12.77;5.82;;;20.40;99.90;;;;;;3521638;40;20424;-81
2021/06/17 03:43:25;;;;;;;10.02;6.20;;;20.40;99.90;;;;;;3505076;40;20087;-81
2021/06/17 03:45:59;;;;;;;9.63;5.15;;;20.40;99.90;;;;;;3512387;40;20620;-80
2021/06/17 03:48:30;;;;;;;13.20;9.25;;;20.40;99.90;;;;;;3516476;40;20084;-81
2021/06/17 03:51:01;;;;;;;13.43;7.55;;;20.40;99.90;;;;;;3520306;40;20051;-80
2021/06/17 03:53:31;;;;;;;12.15;5.85;;;20.50;99.90;;;;;;3515073;40;20126;-81
2021/06/17 03:56:01;;;;;;;10.83;7.03;;;20.50;99.90;;;;;;3509734;40;20103;-81
2021/06/17 03:58:30;;;;;;;12.60;8.18;;;20.50;99.90;;;;;;3510961;40;20114;-81
2021/06/17 04:00:59;;;;;;;9.68;6.15;;;20.50;99.90;;;;;;3521982;40;20071;-81
2021/06/17 04:03:29;;;;;;;11.00;5.80;;;20.60;99.90;;;;;;3520162;40;20094;-81
2021/06/17 04:05:58;;;;;;;11.85;5.97;;;20.60;99.90;;;;;;3513728;40;20027;-81
2021/06/17 04:08:30;;;;;;;8.07;5.68;;;20.60;99.90;;;;;;3511376;40;20095;-81
2021/06/17 04:11:04;;;;;;;12.20;6.53;;;20.70;99.90;;;;;;3504400;40;20076;-82
2021/06/17 04:13:36;;;;;;;9.30;5.65;;;20.70;99.90;;;;;;3513438;40;20079;-81
2021/06/17 04:16:05;;;;;;;11.98;6.20;;;20.70;99.90;;;;;;3504753;40;20092;-82
2021/06/17 04:18:36;;;;;;;12.25;6.00;;;20.70;99.90;;;;;;3513373;40;20028;-82
2021/06/17 04:21:08;;;;;;;9.43;5.63;;;20.80;99.90;;;;;;3525282;40;20090;-82
2021/06/17 04:23:37;;;;;;;12.02;5.78;;;20.90;99.90;;;;;;3519344;40;20071;-82
2021/06/17 04:26:06;;;;;;;11.48;6.22;;;21.00;99.90;;;;;;3515725;40;20075;-82
2021/06/17 04:28:35;;;;;;;12.90;8.40;;;21.00;99.90;;;;;;3523807;40;20075;-81
2021/06/17 04:31:03;;;;;;;10.68;5.95;;;21.00;99.90;;;;;;3515151;40;20309;-81
2021/06/17 04:33:34;;;;;;;12.93;6.00;;;21.00;99.90;;;;;;3505940;40;20095;-82
2021/06/17 04:36:04;;;;;;;14.57;5.53;;;21.00;99.90;;;;;;3527475;40;20063;-82
2021/06/17 04:38:34;;;;;;;10.13;6.20;;;21.00;99.90;;;;;;3515143;40;20071;-81
2021/06/17 04:41:03;;;;;;;12.95;6.10;;;21.00;99.90;;;;;;3520848;40;20079;-82
2021/06/17 04:43:32;;;;;;;9.50;6.18;;;20.90;99.90;;;;;;3534948;40;20075;-83
2021/06/17 04:46:04;;;;;;;9.93;5.70;;;21.00;99.90;;;;;;3524447;40;20040;-80
2021/06/17 04:48:44;;;;;;;9.02;5.72;;;21.00;99.90;;;;;;3519915;40;20075;-81
2021/06/17 04:51:16;;;;;;;18.50;7.20;;;21.00;99.90;;;;;;3519210;40;20079;-81
2021/06/17 04:53:44;;;;;;;10.10;6.70;;;21.10;99.90;;;;;;3515944;40;20091;-81
2021/06/17 04:56:13;;;;;;;7.63;5.53;;;21.10;99.90;;;;;;3514235;40;20412;-82
2021/06/17 04:58:42;;;;;;;10.00;5.43;;;21.10;99.90;;;;;;3505051;41;20084;-82
2021/06/17 05:01:10;;;;;;;10.68;5.70;;;21.10;99.90;;;;;;3512203;40;20151;-81
2021/06/17 05:03:38;;;;;;;14.15;5.97;;;21.20;99.90;;;;;;3514373;40;20130;-83
2021/06/17 05:06:10;;;;;;;14.52;6.20;;;21.30;99.90;;;;;;3511751;41;20088;-81
2021/06/17 05:11:25;;;;;;;12.63;5.78;;;21.60;99.90;;;;;;3512513;40;20072;-82
2021/06/17 05:13:53;;;;;;;18.95;5.60;;;21.80;99.90;;;;;;3513056;40;20080;-83
2021/06/17 05:16:22;;;;;;;9.95;6.05;;;22.00;99.90;;;;;;3512530;40;20064;-84
2021/06/17 05:18:49;;;;;;;10.35;5.35;;;22.10;99.90;;;;;;3502366;41;20420;-81
2021/06/17 05:21:20;;;;;;;8.77;5.30;;;22.20;99.90;;;;;;3507798;40;20075;-81
2021/06/17 05:23:53;;;;;;;15.98;5.65;;;22.20;99.90;;;;;;3513260;40;20103;-82
2021/06/17 05:26:23;;;;;;;10.02;5.55;;;22.30;99.90;;;;;;3511648;40;20319;-81
2021/06/17 05:28:55;;;;;;;13.27;5.90;;;22.40;99.90;;;;;;3505330;40;20075;-82
2021/06/17 05:31:23;;;;;;;14.10;6.20;;;22.50;99.90;;;;;;3513226;40;20136;-82
2021/06/17 05:33:51;;;;;;;;;;;22.60;99.90;;;;;;3506634;40;20067;-81
2021/06/17 05:36:19;;;;;;;7.63;4.60;;;22.70;99.90;;;;;;3511858;40;19971;-79
2021/06/17 05:38:48;;;;;;;13.13;4.57;;;22.80;99.90;;;;;;3510504;41;20424;-83
2021/06/17 05:41:17;;;;;;;8.10;4.78;;;22.90;99.90;;;;;;3512800;40;20079;-82
2021/06/17 05:43:46;;;;;;;6.97;4.50;;;23.10;99.90;;;;;;3518089;40;20087;-82
2021/06/17 05:46:18;;;;;;;12.07;5.00;;;23.20;99.90;;;;;;3521172;40;20071;-82
2021/06/17 05:48:51;;;;;;;12.07;5.07;;;23.40;99.90;;;;;;3515475;40;20088;-83
2021/06/17 05:55:20;;;;;;;13.52;4.35;;;23.60;99.90;;;;;;3513490;40;20170;-84
2021/06/17 05:57:49;;;;;;;8.05;4.38;;;23.80;99.70;;;;;;3500985;40;20091;-81
2021/06/17 06:00:18;;;;;;;8.50;3.83;;;23.90;99.90;;;;;;3514666;40;20091;-80
2021/06/17 06:02:46;;;;;;;7.78;4.07;;;24.00;99.10;;;;;;3506429;40;20071;-81
2021/06/17 06:05:18;;;;;;;9.35;4.25;;;24.10;98.00;;;;;;3512831;40;20091;-82
2021/06/17 06:07:57;;;;;;;7.13;3.88;;;24.30;97.10;;;;;;3514815;40;20071;-83
2021/06/17 06:10:26;;;;;;;13.68;3.95;;;24.30;96.60;;;;;;3523477;40;20083;-82
2021/06/17 06:12:58;;;;;;;8.13;4.15;;;24.40;95.40;;;;;;3523731;40;20095;-82
2021/06/17 06:15:32;;;;;;;14.18;4.13;;;24.50;95.10;;;;;;3515338;40;20071;-86
2021/06/17 06:18:07;;;;;;;7.63;3.55;;;24.50;94.50;;;;;;3514146;40;20077;-80
2021/06/17 06:20:36;;;;;;;9.05;3.90;;;24.60;94.40;;;;;;3498168;40;20061;-81
2021/06/17 06:23:05;;;;;;;10.00;3.80;;;24.60;94.30;;;;;;3531685;40;20071;-81
2021/06/17 06:25:33;;;;;;;11.30;4.03;;;24.70;94.30;;;;;;3516630;40;20114;-82
2021/06/17 06:28:14;;;;;;;9.45;4.20;;;24.70;94.00;;;;;;3519971;40;20359;-82
2021/06/17 06:30:42;;;;;;;11.73;3.88;;;24.80;93.50;;;;;;3522365;40;20064;-81
2021/06/17 06:33:15;;;;;;;7.28;3.67;;;24.90;92.80;;;;;;3515684;40;20088;-81
2021/06/17 06:35:45;;;;;;;9.50;3.75;;;25.00;92.70;;;;;;3514180;40;20091;-81
2021/06/17 06:38:13;;;;;;;9.57;3.92;;;25.00;92.50;;;;;;3515128;40;20433;-81
2021/06/17 06:40:44;;;;;;;7.45;4.05;;;24.90;92.40;;;;;;3514663;40;20086;-83
2021/06/17 06:43:15;;;;;;;9.57;4.57;;;25.00;92.30;;;;;;3508079;40;20340;-82
2021/06/17 06:45:47;;;;;;;8.82;3.33;;;25.00;92.30;;;;;;3513475;40;20095;-82
2021/06/17 06:48:18;;;;;;;10.73;3.70;;;25.20;91.80;;;;;;3514219;40;20427;-81
2021/06/17 06:50:48;;;;;;;5.28;3.20;;;25.30;91.40;;;;;;3513032;40;20427;-82
2021/06/17 06:53:16;;;;;;;7.03;3.88;;;25.30;91.30;;;;;;3521577;40;20075;-82
2021/06/17 06:55:44;;;;;;;7.88;3.40;;;25.40;90.80;;;;;;3515475;40;20075;-83
2021/06/17 06:58:14;;;;;;;10.75;3.67;;;25.40;90.80;;;;;;3524601;40;20084;-83
2021/06/17 07:00:43;;;;;;;8.57;3.70;;;25.50;90.50;;;;;;3513366;40;20075;-83
2021/06/17 07:03:11;;;;;;;8.27;3.90;;;25.50;90.40;;;;;;3520302;40;20068;-82
2021/06/17 07:05:39;;;;;;;10.35;3.28;;;25.60;90.30;;;;;;3521826;40;20080;-84
2021/06/17 07:08:10;;;;;;;11.52;3.60;;;25.70;89.90;;;;;;3519852;40;20064;-82
2021/06/17 07:10:43;;;;;;;8.25;3.42;;;25.70;88.40;;;;;;3517793;40;20087;-83
2021/06/17 07:13:13;;;;;;;6.55;3.53;;;25.80;88.60;;;;;;3512239;40;20075;-80
2021/06/17 07:15:43;;;;;;;14.73;3.67;;;25.90;88.00;;;;;;3512486;40;20108;-81
2021/06/17 07:18:12;;;;;;;9.50;3.53;;;26.00;87.60;;;;;;3512851;40;20083;-82
2021/06/17 07:20:40;;;;;;;7.70;3.58;;;26.00;88.00;;;;;;3503091;40;20119;-81
2021/06/17 07:23:07;;;;;;;9.13;3.78;;;25.90;87.80;;;;;;3511968;40;20115;-81
2021/06/17 07:25:35;;;;;;;8.13;3.43;;;25.90;87.50;;;;;;3512931;40;20068;-81
2021/06/17 07:28:06;;;;;;;16.35;3.58;;;26.00;87.10;;;;;;3513525;40;20336;-82
2021/06/17 07:30:39;;;;;;;10.48;3.58;;;26.20;86.20;;;;;;3521359;40;20099;-82
2021/06/17 07:33:11;;;;;;;9.57;3.50;;;26.30;85.20;;;;;;3496977;40;20296;-82
2021/06/17 07:35:39;;;;;;;7.40;3.30;;;26.30;84.30;;;;;;3520347;40;20095;-81
2021/06/17 07:38:06;;;;;;;8.40;3.30;;;26.50;83.60;;;;;;3520346;40;20396;-79
2021/06/17 07:40:35;;;;;;;8.95;3.80;;;26.50;82.80;;;;;;3521594;40;20103;-82
2021/06/17 07:43:05;;;;;;;10.40;3.10;;;26.60;83.30;;;;;;3512947;40;20396;-81
2021/06/17 07:45:33;;;;;;;6.82;3.17;;;26.70;82.70;;;;;;3517467;40;20091;-81
2021/06/17 07:48:03;;;;;;;9.57;3.53;;;26.70;82.40;;;;;;3512734;40;20060;-82
2021/06/17 07:50:34;;;;;;;10.93;3.47;;;26.90;82.50;;;;;;3512605;40;20395;-82
2021/06/17 07:53:05;;;;;;;11.95;4.10;;;27.00;82.40;;;;;;3521376;40;20103;-81
2021/06/17 07:55:33;;;;;;;7.75;3.20;;;27.00;81.80;;;;;;3512496;40;20076;-81
2021/06/17 07:58:01;;;;;;;;;;;27.20;81.90;;;;;;3522464;40;20095;-82
2021/06/17 08:00:30;;;;;;;9.50;4.15;;;27.20;80.60;;;;;;3521374;40;20308;-81
2021/06/17 08:02:59;;;;;;;8.80;3.63;;;27.20;80.80;;;;;;3512378;40;20076;-81
2021/06/17 08:05:31;;;;;;;7.32;3.60;;;27.30;80.10;;;;;;3520809;40;20103;-80
2021/06/17 08:08:00;;;;;;;7.15;3.70;;;27.40;79.60;;;;;;3520101;40;20060;-80
2021/06/17 08:10:30;;;;;;;11.80;3.63;;;27.50;80.00;;;;;;3520627;40;20092;-79
2021/06/17 08:12:58;;;;;;;8.10;3.75;;;27.50;77.30;;;;;;3520524;40;20079;-81
2021/06/17 08:15:26;;;;;;;9.68;3.40;;;27.50;76.30;;;;;;3523685;40;20065;-80
2021/06/17 08:17:54;;;;;;;6.30;3.20;;;27.60;77.20;;;;;;3526440;40;20167;-81
2021/06/17 08:20:24;;;;;;;6.95;3.70;;;27.70;75.70;;;;;;3527415;40;20069;-80
2021/06/17 08:22:54;;;;;;;6.15;3.17;;;27.80;73.60;;;;;;3523377;40;20059;-81
2021/06/17 08:25:23;;;;;;;8.57;3.20;;;27.80;72.60;;;;;;3507942;40;20126;-81
2021/06/17 08:27:51;;;;;;;7.30;2.90;;;27.80;70.30;;;;;;3519652;40;20076;-81
2021/06/17 08:30:20;;;;;;;10.30;2.90;;;27.90;70.10;;;;;;3520189;40;20087;-81
2021/06/17 08:32:50;;;;;;;7.25;3.30;;;28.00;69.60;;;;;;3523110;40;20338;-80
2021/06/17 08:35:18;;;;;;;7.32;3.13;;;28.10;68.50;;;;;;3530742;40;20063;-80
2021/06/17 08:37:46;;;;;;;5.10;2.95;;;28.10;67.20;;;;;;3522005;40;20076;-81
2021/06/17 08:40:14;;;;;;;7.63;2.90;;;28.20;65.20;;;;;;3511309;40;20091;-81
2021/06/17 08:42:45;;;;;;;4.78;2.85;;;28.10;65.00;;;;;;3512403;40;20067;-80
2021/06/17 08:45:16;;;;;;;5.70;3.40;;;28.10;65.30;;;;;;3503302;40;20155;-81
2021/06/17 08:47:46;;;;;;;6.88;3.17;;;28.10;65.30;;;;;;3519743;40;20098;-80
2021/06/17 08:50:17;;;;;;;6.15;3.08;;;28.20;65.60;;;;;;3520257;40;20079;-81
2021/06/17 08:52:47;;;;;;;5.70;3.03;;;28.30;66.20;;;;;;3515542;40;20067;-80
2021/06/17 08:55:19;;;;;;;7.30;3.08;;;28.30;66.30;;;;;;3505990;40;20412;-80
2021/06/17 08:57:50;;;;;;;8.57;3.15;;;28.30;66.30;;;;;;3503737;40;20323;-80
2021/06/17 09:00:29;;;;;;;5.50;3.15;;;28.50;65.70;;;;;;3530550;40;20095;-81
2021/06/17 09:03:01;;;;;;;8.60;3.50;;;28.60;66.40;;;;;;3526924;40;20071;-80
2021/06/17 09:05:34;;;;;;;8.00;3.75;;;28.80;66.60;;;;;;3503318;41;20076;-80
2021/06/17 09:08:02;;;;;;;7.63;3.13;;;28.90;67.50;;;;;;3506014;41;20095;-81
2021/06/17 09:10:31;;;;;;;6.13;3.00;;;29.00;66.70;;;;;;3502623;40;20071;-86
2021/06/17 09:13:04;;;;;;;7.40;3.47;;;29.10;66.70;;;;;;3494460;41;20104;-81
2021/06/17 09:15:41;;;;;;;9.23;3.60;;;29.10;66.00;;;;;;3500314;41;20091;-81
2021/06/17 09:18:24;;;;;;;8.93;3.35;;;29.10;65.70;;;;;;3501396;41;20076;-82
2021/06/17 09:21:00;;;;;;;7.53;2.78;;;29.20;66.70;;;;;;3492868;41;20339;-83
2021/06/17 09:23:31;;;;;;;5.72;3.08;;;29.20;65.90;;;;;;3501149;41;20068;-81
2021/06/17 09:26:01;;;;;;;7.15;3.10;;;29.20;64.70;;;;;;3491903;40;20107;-84
2021/06/17 09:28:46;;;;;;;7.75;3.53;;;29.30;64.90;;;;;;3502997;41;20096;-81
2021/06/17 09:31:15;;;;;;;6.43;2.88;;;29.30;64.40;;;;;;3514573;40;21809;-81
2021/06/17 09:33:44;;;;;;;8.23;3.20;;;29.20;64.70;;;;;;3510453;40;20092;-82
2021/06/17 09:36:14;;;;;;;6.85;3.42;;;29.30;64.90;;;;;;3505038;40;20076;-83
2021/06/17 09:38:47;;;;;;;7.97;3.90;;;29.50;66.50;;;;;;3519941;40;20088;-82
2021/06/17 09:41:34;;;;;;;9.77;3.33;;;29.60;68.00;;;;;;3522721;40;20104;-81
2021/06/17 09:44:04;;;;;;;6.57;3.40;;;29.70;68.00;;;;;;3522617;41;20036;-81
2021/06/17 09:46:33;;;;;;;6.63;3.42;;;29.70;67.40;;;;;;3515749;40;20429;-82
2021/06/17 09:49:05;;;;;;;;;;;29.80;67.70;;;;;;3523607;40;20087;-81
2021/06/17 09:51:35;;;;;;;10.18;4.60;;;29.90;67.00;;;;;;3522598;40;20322;-80
2021/06/17 09:54:21;;;;;;;6.07;3.15;;;30.00;67.20;;;;;;3513416;40;20087;-81
2021/06/17 09:56:51;;;;;;;10.48;4.03;;;30.10;66.80;;;;;;3513355;40;20064;-81
2021/06/17 09:59:41;;;;;;;9.00;3.78;;;30.10;66.70;;;;;;3511714;41;20132;-82
2021/06/17 10:02:16;;;;;;;7.78;3.30;;;30.20;66.00;;;;;;3510090;40;20087;-82
2021/06/17 10:04:44;;;;;;;8.10;3.75;;;30.20;65.50;;;;;;3519935;40;20068;-84
2021/06/17 10:07:12;;;;;;;;;;;30.20;64.50;;;;;;3523321;40;20099;-81
2021/06/17 10:09:40;;;;;;;7.43;3.72;;;30.30;64.20;;;;;;3512172;40;19975;-81
2021/06/17 10:12:08;;;;;;;;;;;30.50;63.30;;;;;;3504485;40;20092;-84
2021/06/17 10:14:41;;;;;;;8.60;3.92;;;30.80;62.70;;;;;;3510619;40;19971;-81
2021/06/17 10:17:17;;;;;;;6.57;3.20;;;31.50;61.20;;;;;;3510453;40;20362;-81
2021/06/17 10:19:47;;;;;;;9.00;3.15;;;32.30;59.90;;;;;;3521378;40;20373;-82
2021/06/17 10:22:15;;;;;;;5.53;3.60;;;33.10;57.30;;;;;;3521380;40;20099;-82
2021/06/17 10:24:44;;;;;;;10.48;3.17;;;33.80;56.40;;;;;;3512437;40;20072;-80
2021/06/17 10:27:17;;;;;;;7.18;3.33;;;34.30;54.60;;;;;;3522986;40;20092;-81
2021/06/17 10:29:51;;;;;;;6.10;2.80;;;34.90;54.00;;;;;;3518299;40;20071;-81
2021/06/17 10:32:35;;;;;;;17.17;4.25;;;35.50;52.20;;;;;;3508999;41;20420;-81
2021/06/17 10:35:04;;;;;;;6.97;3.20;;;36.30;50.20;;;;;;3508816;40;20091;-81
2021/06/17 10:37:33;;;;;;;8.52;2.95;;;36.80;48.50;;;;;;3512578;40;20080;-81
2021/06/17 10:40:19;;;;;;;7.15;2.80;;;37.60;46.90;;;;;;3520519;40;20095;-82
2021/06/17 10:42:51;;;;;;;6.88;3.15;;;38.30;45.20;;;;;;3521327;40;20032;-81
2021/06/17 10:45:37;;;;;;;4.50;3.10;;;38.80;44.80;;;;;;3526352;40;20396;-85
2021/06/17 10:48:08;;;;;;;4.50;2.40;;;39.40;43.90;;;;;;3512294;40;20083;-82
2021/06/17 10:50:46;;;;;;;3.67;2.60;;;39.60;42.90;;;;;;3518661;40;20079;-83
2021/06/17 10:53:44;;;;;;;6.65;2.72;;;39.80;41.80;;;;;;3528729;40;20063;-82
2021/06/17 10:56:40;;;;;;;4.85;2.92;;;40.20;40.90;;;;;;3516592;40;20084;-82
2021/06/17 10:59:08;;;;;;;5.32;2.78;;;40.50;40.00;;;;;;3512701;40;20071;-83
2021/06/17 11:02:09;;;;;;;5.57;2.75;;;41.00;40.40;;;;;;3520337;40;20060;-82
2021/06/17 11:05:50;;;;;;;5.95;3.03;;;41.50;40.00;;;;;;3486937;41;20085;-81
2021/06/17 11:08:28;;;;;;;4.72;2.63;;;41.70;39.90;;;;;;3502517;41;20074;-81
2021/06/17 11:11:00;;;;;;;7.72;2.65;;;42.30;37.80;;;;;;3497376;41;20081;-84
2021/06/17 11:13:37;;;;;;;5.93;2.65;;;42.40;37.10;;;;;;3486294;41;20081;-82
2021/06/17 11:16:30;;;;;;;6.15;2.85;;;42.50;36.40;;;;;;3479232;41;20069;-83
2021/06/17 11:19:08;;;;;;;3.67;2.17;;;43.30;36.30;;;;;;3492148;41;20363;-83
2021/06/17 11:21:49;;;;;;;6.18;4.20;;;43.80;36.40;;;;;;3470149;41;20444;-85
2021/06/17 11:24:34;;;;;;;6.78;2.88;;;44.50;35.30;;;;;;3496957;41;20069;-83
2021/06/17 11:27:32;;;;;;;6.30;3.00;;;44.70;34.40;;;;;;3480909;41;20132;-83
2021/06/17 11:30:02;;;;;;;4.28;2.58;;;44.80;34.20;;;;;;3477835;41;20089;-83
2021/06/17 11:32:37;;;;;;;6.05;2.90;;;45.50;33.40;;;;;;3473105;41;20089;-82
2021/06/17 11:35:22;;;;;;;4.82;2.40;;;46.00;32.20;;;;;;3475128;40;20074;-83
2021/06/17 11:37:51;;;;;;;5.00;2.40;;;46.00;31.70;;;;;;3512138;40;20084;-84
2021/06/17 11:40:20;;;;;;;4.20;2.80;;;45.50;32.20;;;;;;3512310;40;20076;-84
2021/06/17 11:42:51;;;;;;;5.13;2.90;;;45.50;32.70;;;;;;3520984;40;20091;-82
2021/06/17 11:45:20;;;;;;;4.65;2.30;;;45.60;33.10;;;;;;3521636;40;20068;-83
2021/06/17 11:47:50;;;;;;;4.22;2.60;;;45.60;32.60;;;;;;3519786;40;20079;-83
2021/06/17 11:50:24;;;;;;;4.78;2.60;;;46.10;32.70;;;;;;3523823;40;20056;-82
2021/06/17 11:52:53;;;;;;;4.35;2.70;;;46.00;32.00;;;;;;3514683;40;20437;-80
2021/06/17 11:55:21;;;;;;;6.03;3.05;;;46.20;32.10;;;;;;3514479;40;20337;-83
2021/06/17 11:58:07;;;;;;;10.85;3.10;;;46.90;31.10;;;;;;3510546;41;20291;-81
2021/06/17 12:00:34;;;;;;;6.25;2.95;;;47.20;31.10;;;;;;3514880;40;20095;-81
2021/06/17 12:03:16;;;;;;;4.50;2.80;;;47.30;30.90;;;;;;3504544;41;20092;-81
2021/06/17 12:05:53;;;;;;;4.15;2.63;;;48.00;30.50;;;;;;3518147;40;20071;-83
2021/06/17 12:08:29;;;;;;;3.90;2.70;;;48.20;29.80;;;;;;3519638;40;20087;-83
2021/06/17 12:11:21;;;;;;;7.03;2.50;;;48.20;30.30;;;;;;3521900;40;20083;-82
2021/06/17 12:13:54;;;;;;;4.75;2.80;;;48.60;29.50;;;;;;3506341;40;20075;-83
2021/06/17 12:16:22;;;;;;;5.38;2.10;;;48.80;29.80;;;;;;3512840;41;20067;-81
2021/06/17 12:18:52;;;;;;;7.40;2.80;;;48.80;30.00;;;;;;3522387;40;20068;-82
2021/06/17 12:21:29;;;;;;;3.22;2.45;;;48.50;30.00;;;;;;3521879;40;20035;-83
2021/06/17 12:23:57;;;;;;;5.45;2.47;;;48.40;30.40;;;;;;3500448;41;20056;-82
2021/06/17 12:26:32;;;;;;;5.60;2.45;;;48.80;30.30;;;;;;3510529;40;20084;-81
2021/06/17 12:29:10;;;;;;;6.85;2.80;;;49.00;30.30;;;;;;3511268;40;20099;-83
2021/06/17 12:31:41;;;;;;;9.52;3.00;;;49.10;30.10;;;;;;3525066;40;20083;-83
2021/06/17 12:34:12;;;;;;;6.93;2.67;;;49.30;30.00;;;;;;3528546;40;20378;-82
2021/06/17 12:36:42;;;;;;;4.70;2.70;;;49.70;30.00;;;;;;3522013;40;20071;-83
2021/06/17 12:39:13;;;;;;;4.80;3.20;;;49.50;29.90;;;;;;3507937;40;20123;-83
2021/06/17 12:41:43;;;;;;;3.78;2.85;;;49.70;30.00;;;;;;3512280;40;20087;-81
2021/06/17 12:44:31;;;;;;;6.30;3.30;;;49.40;29.80;;;;;;3506790;41;20071;-83
2021/06/17 12:47:02;;;;;;;8.82;2.60;;;49.40;29.50;;;;;;3514475;40;20292;-81
2021/06/17 12:52:30;;;;;;;3.80;2.10;;;49.30;29.60;;;;;;3520042;40;20091;-81
2021/06/17 12:54:59;;;;;;;6.85;2.78;;;48.80;29.50;;;;;;3513170;40;20076;-84
2021/06/17 12:57:29;;;;;;;6.22;2.30;;;49.20;29.10;;;;;;3521639;40;20085;-83
2021/06/17 13:00:01;;;;;;;5.22;2.78;;;49.10;29.40;;;;;;3520499;40;20064;-82
2021/06/17 13:02:46;;;;;;;5.78;2.42;;;49.30;29.20;;;;;;3517320;40;20296;-82
2021/06/17 13:05:19;;;;;;;3.38;2.20;;;49.40;29.00;;;;;;3511858;40;20095;-83
2021/06/17 13:08:04;;;;;;;4.10;2.15;;;49.20;29.20;;;;;;3517548;40;20036;-82
2021/06/17 13:10:33;;;;;;;3.05;1.90;;;49.10;29.00;;;;;;3521789;40;20112;-82
2021/06/17 13:13:16;;;;;;;3.85;2.00;;;49.30;28.90;;;;;;3511645;40;20072;-81
2021/06/17 13:15:44;;;;;;;4.35;2.22;;;49.50;28.80;;;;;;3519519;40;20064;-82
2021/06/17 13:18:17;;;;;;;5.55;2.55;;;49.30;28.70;;;;;;3512649;40;20427;-81
2021/06/17 13:20:52;;;;;;;4.32;2.42;;;48.90;29.00;;;;;;3520401;40;20392;-82